Time;durP1;ratioP1;P1;durP2;ratioP2;P2;SDS_P1;SDS_P2;PMS_P1;PMS_P2;Temp;Humidity;BMP_temperature;BMP_pressure;BME280_temperature;BME280_humidity;BME280_pressure;Samples;Min_cycle;Max_cycle;Signal;HPM_P1;HPM_P2
2023/08/01 00:00:37;;;;;;;2.13;1.93;;;20.80;97.70;;;;;;4996001;28;20461;-73
2023/08/01 00:03:03;;;;;;;2.47;2.20;;;20.90;97.80;;;;;;5012321;28;20432;-72
2023/08/01 00:05:29;;;;;;;3.00;1.90;;;20.80;98.10;;;;;;5012526;28;20996;-73
2023/08/01 00:07:55;;;;;;;1.70;1.60;;;20.90;97.80;;;;;;5029592;28;20587;-73
2023/08/01 00:10:23;;;;;;;2.33;1.73;;;20.80;97.70;;;;;;5011990;28;20506;-73
2023/08/01 00:12:49;;;;;;;2.60;2.03;;;20.80;97.70;;;;;;5026692;28;20518;-73
2023/08/01 00:15:15;;;;;;;1.73;1.63;;;20.90;97.70;;;;;;4977064;28;20438;-73
2023/08/01 00:17:41;;;;;;;2.00;1.67;;;20.90;97.70;;;;;;4991648;28;20471;-73
2023/08/01 00:20:11;;;;;;;1.70;1.57;;;20.90;97.70;;;;;;4999348;28;20453;-73
2023/08/01 00:22:44;;;;;;;1.80;1.70;;;20.80;97.90;;;;;;5011229;28;20424;-73
2023/08/01 00:25:10;;;;;;;1.50;1.40;;;20.90;97.90;;;;;;5019232;28;20526;-73
2023/08/01 00:27:36;;;;;;;1.57;1.47;;;20.80;98.00;;;;;;4991065;28;20490;-73
2023/08/01 00:30:02;;;;;;;1.53;1.43;;;20.90;98.10;;;;;;5008769;28;20187;-73
2023/08/01 00:32:31;;;;;;;1.87;1.50;;;20.80;98.10;;;;;;4991988;28;20505;-73
2023/08/01 00:34:57;;;;;;;1.77;1.63;;;20.80;98.10;;;;;;4992456;28;20414;-74
2023/08/01 00:37:23;;;;;;;2.00;1.83;;;20.80;98.10;;;;;;4987851;28;20475;-73
2023/08/01 00:39:51;;;;;;;1.73;1.50;;;20.80;98.10;;;;;;5032772;28;20468;-73
2023/08/01 00:42:20;;;;;;;1.60;1.50;;;20.80;98.10;;;;;;5014888;28;20452;-73
2023/08/01 00:44:53;;;;;;;1.77;1.67;;;20.80;98.10;;;;;;4999007;28;20457;-72
2023/08/01 00:47:19;;;;;;;1.80;1.70;;;20.80;98.00;;;;;;5031807;28;20426;-73
2023/08/01 00:49:50;;;;;;;1.60;1.50;;;20.80;98.00;;;;;;5015168;28;20445;-73
2023/08/01 00:52:17;;;;;;;1.83;1.73;;;20.80;98.00;;;;;;4999001;28;20813;-73
2023/08/01 00:54:43;;;;;;;1.87;1.77;;;20.80;98.10;;;;;;4998774;28;20511;-73
2023/08/01 00:57:11;;;;;;;1.73;1.63;;;20.80;98.10;;;;;;5015584;28;20427;-73
2023/08/01 00:59:37;;;;;;;1.70;1.60;;;20.80;98.10;;;;;;5031526;28;20457;-73
2023/08/01 01:02:06;;;;;;;1.60;1.50;;;20.80;98.10;;;;;;5014535;28;20458;-73
2023/08/01 01:04:32;;;;;;;2.20;2.00;;;20.80;98.00;;;;;;5032438;28;20444;-73
2023/08/01 01:07:07;;;;;;;1.90;1.80;;;20.80;98.00;;;;;;4998715;28;20438;-73
2023/08/01 01:09:33;;;;;;;1.80;1.70;;;20.80;98.00;;;;;;4982382;28;20433;-73
2023/08/01 01:12:04;;;;;;;1.70;1.60;;;20.80;98.10;;;;;;5014165;28;20434;-73
2023/08/01 01:14:30;;;;;;;1.73;1.63;;;20.80;98.10;;;;;;5027804;28;20980;-73
2023/08/01 01:16:59;;;;;;;1.97;1.87;;;20.80;98.10;;;;;;4988701;28;20437;-73
2023/08/01 01:19:25;;;;;;;1.57;1.47;;;20.80;98.10;;;;;;5014544;28;20450;-73
2023/08/01 01:21:52;;;;;;;2.00;1.43;;;20.80;98.10;;;;;;5030918;28;20514;-73
2023/08/01 01:24:20;;;;;;;1.60;1.50;;;20.80;98.10;;;;;;5014522;28;20581;-73
2023/08/01 01:26:49;;;;;;;1.50;1.40;;;20.80;98.10;;;;;;5014513;28;21283;-73
2023/08/01 01:29:19;;;;;;;2.13;1.40;;;20.80;98.10;;;;;;5014332;28;20430;-72
2023/08/01 01:31:51;;;;;;;1.77;1.67;;;20.80;98.20;;;;;;5032288;28;20433;-73
2023/08/01 01:34:18;;;;;;;1.70;1.60;;;20.80;98.10;;;;;;4997950;28;20426;-72
2023/08/01 01:36:46;;;;;;;1.87;1.77;;;20.80;98.10;;;;;;5014735;28;20422;-73
2023/08/01 01:39:14;;;;;;;1.70;1.60;;;20.70;98.00;;;;;;5015059;28;20955;-73
2023/08/01 01:41:41;;;;;;;1.77;1.67;;;20.70;98.00;;;;;;5030480;28;20461;-73
2023/08/01 01:47:04;;;;;;;3.83;1.83;;;20.80;98.00;;;;;;4969701;28;21179;-74
2023/08/01 01:49:30;;;;;;;1.70;1.60;;;20.80;98.00;;;;;;4978606;28;20535;-74
2023/08/01 01:51:56;;;;;;;1.70;1.60;;;20.80;97.90;;;;;;4959964;28;20480;-74
2023/08/01 01:54:23;;;;;;;1.80;1.70;;;20.80;97.90;;;;;;4975304;28;20487;-74
2023/08/01 01:56:48;;;;;;;1.60;1.50;;;20.80;97.90;;;;;;4975378;28;20396;-74
2023/08/01 01:59:17;;;;;;;1.50;1.40;;;20.80;97.90;;;;;;4992340;28;20802;-74
2023/08/01 02:01:43;;;;;;;1.90;1.80;;;20.70;97.80;;;;;;4991606;28;20478;-74
2023/08/01 02:04:09;;;;;;;1.83;1.73;;;20.70;97.80;;;;;;4991313;28;20431;-74
2023/08/01 02:06:35;;;;;;;1.80;1.70;;;20.80;97.90;;;;;;4991383;28;20208;-74
2023/08/01 02:09:01;;;;;;;1.60;1.50;;;20.80;97.90;;;;;;4990983;28;20495;-74
2023/08/01 02:11:29;;;;;;;1.80;1.70;;;20.70;97.90;;;;;;4991388;28;20431;-74
2023/08/01 02:13:55;;;;;;;1.97;1.87;;;20.70;97.90;;;;;;4974959;28;20423;-72
2023/08/01 02:16:21;;;;;;;1.87;1.77;;;20.70;98.00;;;;;;4964722;28;20454;-74
2023/08/01 02:18:50;;;;;;;1.80;1.70;;;20.70;98.10;;;;;;4994573;28;20215;-74
2023/08/01 02:21:18;;;;;;;2.17;2.07;;;20.70;98.00;;;;;;4994980;28;20486;-74
2023/08/01 02:23:45;;;;;;;2.20;2.00;;;20.70;98.10;;;;;;4986541;28;20867;-74
2023/08/01 02:26:14;;;;;;;2.43;2.23;;;20.70;98.10;;;;;;4960235;28;20444;-74
2023/08/01 02:28:40;;;;;;;2.30;2.10;;;20.70;98.10;;;;;;4967703;28;20440;-73
2023/08/01 02:31:06;;;;;;;2.10;2.00;;;20.70;98.00;;;;;;4982265;28;20511;-73
2023/08/01 02:33:32;;;;;;;2.40;2.30;;;20.70;98.00;;;;;;4990247;28;20185;-74
2023/08/01 02:36:01;;;;;;;2.30;2.10;;;20.70;98.00;;;;;;4958100;28;20435;-73
2023/08/01 02:38:27;;;;;;;2.60;2.40;;;20.70;98.10;;;;;;4958193;28;20502;-74
2023/08/01 02:40:53;;;;;;;2.90;2.70;;;20.70;98.00;;;;;;4991328;28;20499;-74
2023/08/01 02:43:21;;;;;;;2.70;2.50;;;20.70;98.00;;;;;;4991341;28;20499;-74
2023/08/01 02:45:47;;;;;;;3.00;2.80;;;20.70;98.00;;;;;;4991346;28;20428;-74
2023/08/01 02:48:13;;;;;;;2.83;2.63;;;20.70;98.00;;;;;;4974268;28;20422;-74
2023/08/01 02:50:40;;;;;;;3.40;2.63;;;20.70;98.00;;;;;;4988242;28;20465;-74
2023/08/01 02:53:06;;;;;;;2.80;2.60;;;20.70;98.00;;;;;;4970787;28;20431;-74
2023/08/01 02:55:32;;;;;;;2.83;2.63;;;20.70;98.00;;;;;;4970717;28;20437;-74
2023/08/01 02:57:58;;;;;;;3.00;2.63;;;20.70;98.00;;;;;;4970061;28;20471;-74
2023/08/01 03:00:24;;;;;;;2.97;2.63;;;20.70;98.00;;;;;;4970446;28;20510;-73
2023/08/01 03:02:52;;;;;;;3.33;3.13;;;20.70;98.00;;;;;;4969925;28;20443;-74
2023/08/01 03:05:20;;;;;;;3.57;3.37;;;20.70;98.00;;;;;;4954222;28;20887;-74
2023/08/01 03:07:46;;;;;;;3.20;3.00;;;20.70;98.00;;;;;;4986817;28;20450;-74
2023/08/01 03:10:13;;;;;;;4.07;3.77;;;20.70;98.00;;;;;;5003198;28;20456;-74
2023/08/01 03:12:38;;;;;;;3.40;3.10;;;20.70;98.00;;;;;;4986023;28;20459;-74
2023/08/01 03:15:08;;;;;;;3.70;3.50;;;20.70;98.00;;;;;;4970715;28;20806;-73
2023/08/01 03:17:37;;;;;;;4.27;3.93;;;20.70;98.00;;;;;;4957575;28;20478;-74
2023/08/01 03:20:03;;;;;;;4.83;4.43;;;20.70;98.00;;;;;;4989577;28;21049;-74
2023/08/01 03:22:31;;;;;;;4.70;4.40;;;20.70;98.00;;;;;;4973466;28;20470;-74
2023/08/01 03:25:07;;;;;;;4.00;3.40;;;20.60;97.90;;;;;;4989697;28;20463;-74
2023/08/01 03:27:34;;;;;;;4.07;3.77;;;20.60;97.90;;;;;;4973504;28;20798;-74
2023/08/01 03:30:01;;;;;;;4.97;4.60;;;20.60;97.90;;;;;;4973437;28;20432;-74
2023/08/01 03:32:30;;;;;;;4.40;4.00;;;20.60;97.90;;;;;;4957276;28;20535;-74
2023/08/01 03:34:56;;;;;;;4.10;3.80;;;20.60;97.90;;;;;;4956449;28;20561;-74
2023/08/01 03:37:23;;;;;;;4.60;4.30;;;20.60;97.90;;;;;;4972792;28;20438;-74
2023/08/01 03:39:49;;;;;;;4.93;4.53;;;20.60;97.90;;;;;;4956852;28;20451;-74
2023/08/01 03:42:15;;;;;;;4.70;4.40;;;20.60;97.90;;;;;;4956644;28;20481;-74
2023/08/01 03:44:43;;;;;;;4.90;4.57;;;20.60;97.90;;;;;;4972809;28;20424;-74
2023/08/01 03:47:09;;;;;;;4.90;4.43;;;20.60;97.90;;;;;;4951846;28;20455;-74
2023/08/01 03:49:35;;;;;;;5.37;4.97;;;20.60;97.90;;;;;;4973148;28;20498;-73
2023/08/01 03:52:02;;;;;;;6.23;4.80;;;20.60;97.90;;;;;;4985119;28;20492;-73
2023/08/01 03:54:30;;;;;;;5.10;4.70;;;20.60;97.90;;;;;;4971330;28;20405;-74
2023/08/01 03:56:56;;;;;;;5.30;4.77;;;20.60;97.90;;;;;;5002633;28;20968;-74
2023/08/01 03:59:22;;;;;;;4.90;4.40;;;20.60;97.90;;;;;;4971338;28;20859;-74
2023/08/01 04:01:49;;;;;;;5.10;4.70;;;20.60;97.90;;;;;;4986150;28;20444;-74
2023/08/01 04:04:20;;;;;;;5.07;4.57;;;20.60;97.90;;;;;;4997491;28;20514;-74
2023/08/01 04:06:46;;;;;;;5.70;5.20;;;20.60;97.80;;;;;;4972808;28;20441;-74
2023/08/01 04:09:12;;;;;;;4.73;4.40;;;20.60;97.80;;;;;;4957549;28;20924;-74
2023/08/01 04:11:41;;;;;;;5.17;4.30;;;20.60;97.80;;;;;;4977504;28;21101;-74
2023/08/01 04:14:07;;;;;;;5.33;4.70;;;20.60;97.80;;;;;;4993012;28;20453;-74
2023/08/01 04:16:33;;;;;;;4.93;4.50;;;20.60;97.80;;;;;;4977233;28;20443;-74
2023/08/01 04:19:01;;;;;;;5.50;5.00;;;20.50;97.70;;;;;;4974935;28;21066;-73
2023/08/01 04:21:26;;;;;;;5.53;5.00;;;20.60;97.70;;;;;;4991776;28;20858;-74
2023/08/01 04:23:53;;;;;;;5.57;5.00;;;20.50;97.70;;;;;;4959733;28;20434;-74
2023/08/01 04:26:19;;;;;;;7.10;4.87;;;20.60;97.70;;;;;;4991979;28;20188;-74
2023/08/01 04:28:47;;;;;;;9.50;5.20;;;20.50;97.70;;;;;;4993896;28;20403;-76
2023/08/01 04:31:14;;;;;;;5.10;4.60;;;20.60;97.70;;;;;;4960053;28;20475;-76
2023/08/01 04:33:40;;;;;;;5.90;5.40;;;20.60;97.70;;;;;;4976579;28;20565;-75
2023/08/01 04:36:09;;;;;;;5.63;5.13;;;20.50;97.60;;;;;;4992262;28;20486;-76
2023/08/01 04:38:34;;;;;;;5.97;4.60;;;20.50;97.60;;;;;;4994204;28;20431;-76
2023/08/01 04:41:02;;;;;;;4.93;4.43;;;20.50;97.60;;;;;;5000828;28;20994;-76
2023/08/01 04:43:28;;;;;;;5.23;4.83;;;20.50;97.60;;;;;;4975547;28;20442;-76
2023/08/01 04:45:57;;;;;;;6.40;5.37;;;20.50;97.60;;;;;;4975803;28;20908;-75
2023/08/01 04:48:23;;;;;;;5.73;5.23;;;20.50;97.60;;;;;;4992916;28;20525;-76
2023/08/01 04:50:49;;;;;;;6.17;5.57;;;20.50;97.60;;;;;;4992935;28;20431;-76
2023/08/01 04:53:15;;;;;;;7.53;6.80;;;20.50;97.60;;;;;;4992868;28;20223;-76
2023/08/01 04:55:41;;;;;;;8.23;6.37;;;20.50;97.60;;;;;;4975398;28;20929;-76
2023/08/01 04:58:07;;;;;;;6.67;6.07;;;20.50;97.60;;;;;;4976218;28;20658;-75
2023/08/01 05:00:33;;;;;;;6.10;5.60;;;20.50;97.60;;;;;;4959562;28;21041;-76
2023/08/01 05:03:04;;;;;;;6.63;6.03;;;20.40;97.60;;;;;;4992686;28;20448;-76
2023/08/01 05:05:32;;;;;;;7.63;7.00;;;20.50;97.60;;;;;;4975917;28;20440;-76
2023/08/01 05:08:02;;;;;;;7.80;7.00;;;20.50;98.00;;;;;;4959880;28;20967;-76
2023/08/01 05:10:30;;;;;;;6.50;6.00;;;20.40;97.60;;;;;;4959470;28;20455;-76
2023/08/01 05:12:59;;;;;;;8.23;7.43;;;20.40;97.60;;;;;;4975170;28;20485;-76
2023/08/01 05:15:25;;;;;;;7.53;6.93;;;20.40;97.60;;;;;;4958586;28;20459;-76
2023/08/01 05:17:58;;;;;;;10.47;7.30;;;20.40;97.60;;;;;;4976865;28;20482;-76
2023/08/01 05:20:25;;;;;;;7.87;7.17;;;20.40;97.60;;;;;;4978058;28;20442;-76
2023/08/01 05:22:53;;;;;;;8.13;6.47;;;20.40;97.60;;;;;;4995099;28;20407;-76
2023/08/01 05:25:22;;;;;;;8.67;7.87;;;20.40;97.60;;;;;;5063178;22;20827;-91
2023/08/01 05:27:48;;;;;;;8.00;7.30;;;20.40;97.60;;;;;;4950486;28;20555;-93
2023/08/01 05:30:14;;;;;;;7.50;6.90;;;20.40;97.60;;;;;;4996433;28;20412;-92
2023/08/01 05:33:00;;;;;;;8.80;7.97;;;20.40;97.60;;;;;;4996085;28;20246;-93
2023/08/01 05:35:26;;;;;;;7.90;7.10;;;20.40;97.60;;;;;;4996791;28;20434;-93
2023/08/01 05:37:52;;;;;;;7.80;6.67;;;20.40;97.60;;;;;;4979908;28;20446;-93
2023/08/01 05:40:18;;;;;;;7.93;7.13;;;20.40;97.60;;;;;;4963565;28;20512;-93
2023/08/01 05:42:44;;;;;;;8.90;8.10;;;20.40;97.60;;;;;;4995536;28;20216;-90
2023/08/01 05:45:11;;;;;;;10.97;8.50;;;20.40;97.60;;;;;;4979499;28;20457;-93
2023/08/01 05:47:39;;;;;;;9.33;8.43;;;20.40;97.60;;;;;;4996633;28;20221;-93
2023/08/01 05:50:06;;;;;;;8.50;7.70;;;20.40;97.60;;;;;;4995430;28;20518;-93
2023/08/01 05:52:33;;;;;;;8.53;7.70;;;20.40;97.60;;;;;;4996073;28;20452;-92
2023/08/01 05:54:59;;;;;;;8.37;7.67;;;20.40;97.60;;;;;;4979556;28;20424;-89
2023/08/01 05:57:25;;;;;;;10.63;7.77;;;20.40;97.60;;;;;;5006623;28;20525;-90
2023/08/01 05:59:51;;;;;;;9.40;8.30;;;20.40;97.60;;;;;;5003980;28;20423;-92
2023/08/01 06:02:17;;;;;;;8.47;7.83;;;20.30;97.50;;;;;;4986152;28;20471;-92
2023/08/01 06:04:43;;;;;;;9.30;8.23;;;20.30;97.60;;;;;;4996335;28;20446;-92
2023/08/01 06:07:11;;;;;;;7.63;7.03;;;20.40;97.60;;;;;;4982629;28;20195;-90
2023/08/01 06:09:37;;;;;;;9.37;8.13;;;20.30;97.60;;;;;;5015430;28;20491;-93
2023/08/01 06:12:09;;;;;;;10.80;7.10;;;20.30;97.60;;;;;;4998220;28;20793;-88
2023/08/01 06:15:26;;;;;;;8.67;7.87;;;20.30;97.60;;;;;;4999002;28;20235;-93
2023/08/01 06:17:52;;;;;;;7.53;6.83;;;20.30;97.70;;;;;;4998007;28;20441;-93
2023/08/01 06:20:19;;;;;;;8.30;6.97;;;20.30;97.80;;;;;;4998295;28;20438;-95
2023/08/01 06:22:45;;;;;;;9.37;8.47;;;20.30;97.80;;;;;;5015400;28;20472;-94
2023/08/01 06:25:11;;;;;;;7.77;7.03;;;20.30;97.80;;;;;;4998553;28;20421;-94
2023/08/01 06:27:37;;;;;;;9.27;7.87;;;20.30;97.80;;;;;;5015054;28;20680;-92
2023/08/01 06:30:06;;;;;;;10.80;7.17;;;20.30;97.80;;;;;;4998060;28;20406;-91
2023/08/01 06:32:36;;;;;;;9.63;7.47;;;20.30;97.80;;;;;;4997603;28;20421;-94
2023/08/01 06:35:02;;;;;;;7.93;7.23;;;20.30;97.80;;;;;;5015933;28;20472;-93
2023/08/01 06:37:35;;;;;;;8.70;7.80;;;20.30;97.80;;;;;;5027529;28;20422;-92
2023/08/01 06:40:09;;;;;;;8.43;7.37;;;20.30;97.80;;;;;;5016713;28;21153;-94
2023/08/01 06:42:35;;;;;;;8.17;7.27;;;20.30;97.80;;;;;;5014991;28;20445;-93
2023/08/01 06:45:01;;;;;;;8.10;6.80;;;20.30;97.80;;;;;;5014710;28;20412;-94
2023/08/01 06:47:32;;;;;;;7.63;6.83;;;20.30;97.80;;;;;;4997955;28;20435;-94
2023/08/01 06:49:58;;;;;;;8.37;7.43;;;20.30;97.80;;;;;;4997578;28;20445;-92
2023/08/01 06:52:23;;;;;;;6.70;6.00;;;20.30;97.80;;;;;;4997474;28;20461;-94
2023/08/01 06:54:51;;;;;;;8.83;6.50;;;20.30;97.80;;;;;;4997572;28;20185;-95
2023/08/01 06:57:17;;;;;;;6.63;5.93;;;20.30;97.70;;;;;;4981434;28;20217;-90
2023/08/01 06:59:46;;;;;;;7.73;6.67;;;20.30;97.80;;;;;;5015357;28;20427;-93
2023/08/01 07:02:12;;;;;;;6.60;6.00;;;20.30;97.70;;;;;;4998326;28;20222;-93
2023/08/01 07:04:38;;;;;;;10.37;6.97;;;20.30;97.70;;;;;;4997975;28;20446;-93
2023/08/01 07:07:11;;;;;;;7.73;6.90;;;20.30;97.70;;;;;;4997977;28;20255;-90
2023/08/01 07:09:39;;;;;;;6.77;6.17;;;20.30;97.70;;;;;;4998189;28;20447;-95
2023/08/01 07:12:06;;;;;;;8.37;6.20;;;20.30;97.80;;;;;;5014136;28;20447;-92
2023/08/01 07:14:32;;;;;;;7.50;6.33;;;20.30;97.80;;;;;;5014888;28;20436;-94
2023/08/01 07:16:58;;;;;;;8.17;6.87;;;20.30;97.80;;;;;;5014055;28;20446;-95
2023/08/01 07:19:26;;;;;;;9.37;6.90;;;20.30;97.80;;;;;;5013477;28;20411;-92
2023/08/01 07:21:52;;;;;;;6.90;6.30;;;20.30;97.80;;;;;;4997070;28;20492;-94
2023/08/01 07:24:20;;;;;;;7.57;5.80;;;20.30;97.90;;;;;;5013314;28;20433;-95
2023/08/01 07:26:46;;;;;;;6.97;5.90;;;20.30;97.80;;;;;;4997040;28;20309;-93
2023/08/01 07:29:15;;;;;;;7.07;6.37;;;20.30;97.80;;;;;;5013939;28;20465;-94
2023/08/01 07:31:42;;;;;;;7.70;5.60;;;20.30;97.80;;;;;;5015072;28;20429;-93
2023/08/01 07:34:10;;;;;;;7.73;6.37;;;20.30;97.80;;;;;;5015452;28;20475;-93
2023/08/01 07:36:38;;;;;;;7.73;6.23;;;20.20;97.80;;;;;;5014206;28;20454;-95
2023/08/01 07:39:04;;;;;;;7.10;6.40;;;20.30;97.80;;;;;;5016009;28;20422;-95
2023/08/01 07:41:30;;;;;;;7.43;6.70;;;20.30;97.80;;;;;;4998509;28;21240;-93
2023/08/01 07:43:58;;;;;;;9.47;6.60;;;20.30;97.80;;;;;;4998581;28;20480;-95
2023/08/01 07:46:24;;;;;;;7.43;6.73;;;20.30;97.80;;;;;;4999458;28;20418;-95
2023/08/01 07:48:53;;;;;;;7.93;6.97;;;20.30;97.80;;;;;;5015247;28;20214;-96
2023/08/01 07:51:19;;;;;;;7.57;6.83;;;20.30;97.80;;;;;;4998002;28;20448;-96
2023/08/01 07:53:45;;;;;;;8.00;6.90;;;20.30;97.80;;;;;;4982218;28;20429;-96
2023/08/01 07:56:13;;;;;;;7.67;6.40;;;20.30;97.80;;;;;;4997507;28;20245;-94
2023/08/01 07:58:38;;;;;;;7.90;6.40;;;20.30;97.80;;;;;;5016051;28;20436;-96
2023/08/01 08:01:07;;;;;;;7.40;6.70;;;20.30;97.80;;;;;;4998784;28;21011;-95
2023/08/01 08:03:38;;;;;;;7.97;7.10;;;20.30;97.80;;;;;;4986151;28;20433;-95
2023/08/01 08:06:06;;;;;;;8.43;7.00;;;20.30;97.80;;;;;;5016431;28;20911;-94
2023/08/01 08:08:36;;;;;;;10.00;7.00;;;20.30;97.80;;;;;;4985732;28;20484;-95
2023/08/01 08:11:02;;;;;;;7.33;6.63;;;20.30;97.90;;;;;;5002045;28;20502;-95
2023/08/01 08:13:28;;;;;;;10.20;7.47;;;20.30;97.90;;;;;;5019821;28;20457;-94
2023/08/01 08:15:58;;;;;;;10.40;7.67;;;20.30;97.90;;;;;;5002497;28;20749;-96
2023/08/01 08:18:26;;;;;;;6.90;6.07;;;20.30;98.00;;;;;;5006364;28;20552;-94
2023/08/01 08:20:52;;;;;;;8.23;6.93;;;20.30;98.00;;;;;;5008286;28;20488;-92
2023/08/01 08:23:19;;;;;;;9.53;7.30;;;20.30;98.00;;;;;;5009893;28;20425;-95
2023/08/01 08:25:53;;;;;;;7.13;6.53;;;20.30;98.00;;;;;;5028154;28;20183;-96
2023/08/01 08:28:30;;;;;;;8.70;7.17;;;20.30;98.00;;;;;;5029709;28;20465;-93
2023/08/01 08:31:34;;;;;;;7.67;6.23;;;20.30;98.00;;;;;;4943049;29;20428;-95
2023/08/01 08:34:36;;;;;;;;;;;;;;;;;;;;;
2023/08/01 09:14:58;;;;;;;7.70;6.03;;;20.30;98.40;;;;;;4765498;30;20457;-86
2023/08/01 09:22:01;;;;;;;5.97;5.37;;;20.30;98.40;;;;;;4770950;30;20504;-96
2023/08/01 09:25:56;;;;;;;;;;;;;;;;;;;;;
2023/08/01 09:33:14;;;;;;;6.30;5.70;;;20.40;98.30;;;;;;4832781;29;20473;-88
2023/08/01 09:56:15;;;;;;;6.73;5.93;;;20.40;98.80;;;;;;5012467;28;20476;-77
2023/08/01 09:58:42;;;;;;;6.57;5.57;;;20.40;98.80;;;;;;4996542;28;20908;-77
2023/08/01 10:01:19;;;;;;;6.00;5.40;;;20.40;98.90;;;;;;4996254;28;20875;-77
2023/08/01 10:03:51;;;;;;;6.30;5.50;;;20.50;98.90;;;;;;4980627;28;20454;-77
2023/08/01 10:06:23;;;;;;;6.90;5.93;;;20.50;99.00;;;;;;4996249;28;20945;-78
2023/08/01 10:08:52;;;;;;;6.27;5.67;;;20.50;98.90;;;;;;4996305;28;20403;-77
2023/08/01 10:11:22;;;;;;;6.00;5.20;;;20.50;98.90;;;;;;4964806;28;20465;-78
2023/08/01 10:13:50;;;;;;;8.20;6.00;;;20.60;98.90;;;;;;4980244;28;20806;-77
2023/08/01 10:16:21;;;;;;;7.07;6.47;;;20.50;98.70;;;;;;4981158;28;20425;-77
2023/08/01 10:18:51;;;;;;;6.40;5.80;;;20.60;98.70;;;;;;5014129;28;20434;-77
2023/08/01 10:21:21;;;;;;;9.13;5.63;;;20.60;98.80;;;;;;4996917;28;20466;-77
2023/08/01 10:23:52;;;;;;;6.67;6.17;;;20.60;98.70;;;;;;4996147;28;20447;-77
2023/08/01 10:26:25;;;;;;;6.53;5.93;;;20.60;98.60;;;;;;4963746;28;20430;-76
2023/08/01 10:28:58;;;;;;;9.23;6.17;;;20.70;98.70;;;;;;4979594;28;20466;-77
2023/08/01 10:31:24;;;;;;;6.50;5.90;;;20.60;98.70;;;;;;4979928;28;20482;-78
2023/08/01 10:34:12;;;;;;;7.80;7.00;;;20.70;98.60;;;;;;4996182;28;20445;-77
2023/08/01 10:36:38;;;;;;;8.50;6.73;;;20.70;98.50;;;;;;4995930;28;20417;-77
2023/08/01 10:39:06;;;;;;;7.87;5.70;;;20.70;98.50;;;;;;4979345;28;20455;-78
2023/08/01 10:41:36;;;;;;;6.87;6.17;;;20.70;98.50;;;;;;4995838;28;20485;-77
2023/08/01 10:44:15;;;;;;;5.87;5.37;;;20.70;98.40;;;;;;5013550;28;20523;-76
2023/08/01 10:46:56;;;;;;;6.50;5.90;;;20.70;98.30;;;;;;4995444;28;20400;-77
2023/08/01 10:49:36;;;;;;;6.40;5.80;;;20.80;98.20;;;;;;4979798;28;20453;-77
2023/08/01 10:52:23;;;;;;;7.07;6.23;;;20.80;98.20;;;;;;4995477;28;20417;-77
2023/08/01 10:55:05;;;;;;;6.40;5.90;;;20.80;98.20;;;;;;5013162;28;20437;-78
2023/08/01 10:57:48;;;;;;;6.37;5.77;;;20.80;98.30;;;;;;4980221;28;20994;-77
2023/08/01 11:00:20;;;;;;;7.73;5.90;;;20.80;98.30;;;;;;4979419;28;20451;-77
2023/08/01 11:02:53;;;;;;;8.57;6.27;;;20.80;98.50;;;;;;5013136;28;20544;-77
2023/08/01 11:05:19;;;;;;;6.63;6.03;;;20.80;98.50;;;;;;4995630;28;20421;-77
2023/08/01 11:07:55;;;;;;;6.80;6.20;;;20.80;98.60;;;;;;4980101;28;20447;-78
2023/08/01 11:10:21;;;;;;;8.27;6.30;;;20.80;98.60;;;;;;4963415;28;20462;-77
2023/08/01 11:12:50;;;;;;;6.20;5.60;;;20.80;98.60;;;;;;4995560;28;20912;-77
2023/08/01 11:15:22;;;;;;;7.47;6.30;;;20.80;98.70;;;;;;4996383;28;20450;-77
2023/08/01 11:17:53;;;;;;;6.73;6.00;;;20.80;98.80;;;;;;4995817;28;20901;-77
2023/08/01 11:20:22;;;;;;;6.63;6.03;;;20.90;98.80;;;;;;4995202;28;20590;-79
2023/08/01 11:22:54;;;;;;;6.13;5.63;;;20.90;98.70;;;;;;4963938;28;20469;-79
2023/08/01 11:25:32;;;;;;;8.00;5.90;;;20.90;98.50;;;;;;4994773;28;20422;-78
2023/08/01 11:28:11;;;;;;;6.03;5.50;;;20.90;98.30;;;;;;4979070;28;20481;-79
2023/08/01 11:30:38;;;;;;;6.47;5.00;;;20.90;98.20;;;;;;5012193;28;20438;-77
2023/08/01 11:33:14;;;;;;;6.67;5.80;;;20.90;98.20;;;;;;4978184;28;20430;-79
2023/08/01 11:35:45;;;;;;;6.83;5.97;;;20.90;98.00;;;;;;4977888;28;20436;-78
2023/08/01 11:38:13;;;;;;;8.30;5.47;;;21.00;98.00;;;;;;5011482;28;20398;-78
2023/08/01 11:40:42;;;;;;;5.97;5.43;;;21.00;98.00;;;;;;4978146;28;20456;-78
2023/08/01 11:43:10;;;;;;;6.77;5.60;;;21.00;97.90;;;;;;5012324;28;20475;-78
2023/08/01 11:45:47;;;;;;;6.00;5.20;;;21.00;97.80;;;;;;4994629;28;20465;-78
2023/08/01 11:48:14;;;;;;;7.30;5.53;;;21.00;97.80;;;;;;4994657;28;20485;-78
2023/08/01 11:50:40;;;;;;;7.27;5.70;;;21.00;97.70;;;;;;4994291;28;20427;-77
2023/08/01 11:53:08;;;;;;;6.20;5.70;;;21.00;97.50;;;;;;4994640;28;20482;-78
2023/08/01 11:55:35;;;;;;;6.80;6.20;;;21.00;97.20;;;;;;4978285;28;20430;-77
2023/08/01 11:58:04;;;;;;;6.07;5.60;;;21.00;97.10;;;;;;4978450;28;20389;-78
2023/08/01 12:00:32;;;;;;;5.20;4.70;;;21.10;97.20;;;;;;4962334;28;20426;-78
2023/08/01 12:03:13;;;;;;;5.27;4.87;;;21.10;97.20;;;;;;4978625;28;20466;-78
2023/08/01 12:05:48;;;;;;;6.30;5.77;;;21.10;97.00;;;;;;4977961;28;20442;-77
2023/08/01 12:08:16;;;;;;;5.00;4.50;;;21.00;96.90;;;;;;4994600;28;20960;-79
2023/08/01 12:10:45;;;;;;;5.27;4.77;;;21.10;97.00;;;;;;4994596;28;20705;-77
2023/08/01 12:13:25;;;;;;;5.90;5.40;;;21.00;96.90;;;;;;4994431;28;20912;-78
2023/08/01 12:15:53;;;;;;;5.30;4.80;;;21.10;96.80;;;;;;4994186;28;20988;-77
2023/08/01 12:18:29;;;;;;;5.17;4.67;;;21.10;96.80;;;;;;4993597;28;20950;-78
2023/08/01 12:20:58;;;;;;;4.50;4.10;;;21.10;96.70;;;;;;4993568;28;20458;-77
2023/08/01 12:23:26;;;;;;;4.40;4.00;;;21.00;96.70;;;;;;4978098;28;20447;-77
2023/08/01 12:25:56;;;;;;;4.87;4.47;;;21.10;96.70;;;;;;4962306;28;20966;-77
2023/08/01 12:28:26;;;;;;;5.00;4.10;;;21.00;96.50;;;;;;4994302;28;20406;-77
2023/08/01 12:30:58;;;;;;;6.73;5.20;;;21.00;96.40;;;;;;5014278;28;20473;-79
2023/08/01 12:33:25;;;;;;;5.33;4.70;;;21.00;96.40;;;;;;4965543;28;20430;-77
2023/08/01 12:36:02;;;;;;;4.70;3.87;;;21.10;96.40;;;;;;5015598;28;20445;-77
2023/08/01 12:38:30;;;;;;;4.67;4.17;;;21.10;96.40;;;;;;4982512;28;20430;-78
2023/08/01 12:40:56;;;;;;;4.93;4.50;;;21.10;96.40;;;;;;4997740;28;20888;-78
2023/08/01 12:43:22;;;;;;;5.17;4.60;;;21.10;96.30;;;;;;4997307;28;20893;-78
2023/08/01 12:45:52;;;;;;;5.50;4.47;;;21.10;96.30;;;;;;4997835;28;20427;-78
2023/08/01 12:48:20;;;;;;;4.90;4.47;;;21.10;96.20;;;;;;4997564;28;20445;-79
2023/08/01 12:50:50;;;;;;;4.70;4.30;;;21.10;96.20;;;;;;5015377;28;20438;-78
2023/08/01 12:53:19;;;;;;;6.43;4.33;;;21.10;96.30;;;;;;5015014;28;20416;-78
2023/08/01 12:55:46;;;;;;;4.73;4.33;;;21.10;96.30;;;;;;4981003;28;20450;-78
2023/08/01 12:58:13;;;;;;;4.73;3.97;;;21.10;96.30;;;;;;4981169;28;20938;-77
2023/08/01 13:00:43;;;;;;;4.83;4.43;;;21.10;96.30;;;;;;4997138;28;20454;-78
2023/08/01 13:03:10;;;;;;;4.60;4.03;;;21.10;96.30;;;;;;4965267;28;20849;-77
2023/08/01 13:05:44;;;;;;;4.77;4.17;;;21.10;96.30;;;;;;4981200;28;20485;-78
2023/08/01 13:08:12;;;;;;;5.33;4.37;;;21.20;96.40;;;;;;4998247;28;20402;-78
2023/08/01 13:10:38;;;;;;;4.57;4.23;;;21.20;96.30;;;;;;4997528;28;20444;-77
2023/08/01 13:13:05;;;;;;;4.40;3.87;;;21.20;96.30;;;;;;4996937;28;20494;-77
2023/08/01 13:15:33;;;;;;;4.40;4.00;;;21.20;96.30;;;;;;5014858;28;20426;-77
2023/08/01 13:18:00;;;;;;;6.30;4.73;;;21.20;96.20;;;;;;5014444;28;20834;-77
2023/08/01 13:20:26;;;;;;;5.10;4.53;;;21.20;96.20;;;;;;4996220;28;20462;-78
2023/08/01 13:22:52;;;;;;;4.33;3.93;;;21.20;96.20;;;;;;4980799;28;20452;-77
2023/08/01 13:25:21;;;;;;;6.07;4.00;;;21.30;96.30;;;;;;4981448;28;20806;-78
2023/08/01 13:27:49;;;;;;;6.30;4.63;;;21.20;96.40;;;;;;4980756;28;20427;-79
2023/08/01 13:30:20;;;;;;;4.90;4.00;;;21.30;96.30;;;;;;4996994;28;20473;-78
2023/08/01 13:32:48;;;;;;;4.40;4.00;;;21.30;96.30;;;;;;4980482;28;20455;-79
2023/08/01 13:35:15;;;;;;;4.20;3.80;;;21.30;96.10;;;;;;4996748;28;20928;-78
2023/08/01 13:37:41;;;;;;;4.17;3.77;;;21.30;96.00;;;;;;4980806;28;20431;-78
2023/08/01 13:40:11;;;;;;;5.57;4.27;;;21.30;96.00;;;;;;4996211;28;20455;-77
2023/08/01 13:42:43;;;;;;;4.17;3.73;;;21.40;96.00;;;;;;5013847;28;20459;-79
2023/08/01 13:45:11;;;;;;;5.07;4.20;;;21.40;95.90;;;;;;4996486;28;20461;-77
2023/08/01 13:47:37;;;;;;;4.33;3.80;;;21.40;95.80;;;;;;4996501;28;20877;-77
2023/08/01 13:50:08;;;;;;;4.00;3.70;;;21.40;95.80;;;;;;4981058;28;20958;-78
2023/08/01 13:52:37;;;;;;;4.33;3.93;;;21.40;95.80;;;;;;4964348;28;20427;-78
2023/08/01 13:55:07;;;;;;;4.93;3.90;;;21.50;95.80;;;;;;5014293;28;20435;-77
2023/08/01 13:57:33;;;;;;;4.53;3.87;;;21.50;95.80;;;;;;4980491;28;20422;-77
2023/08/01 13:59:59;;;;;;;4.30;3.90;;;21.50;95.60;;;;;;4980136;28;20534;-78
2023/08/01 14:02:29;;;;;;;3.80;3.40;;;21.50;95.40;;;;;;4980033;28;20499;-77
2023/08/01 14:04:57;;;;;;;5.40;3.87;;;21.50;95.20;;;;;;4980076;28;20943;-77
2023/08/01 14:07:25;;;;;;;4.43;3.60;;;21.50;95.00;;;;;;4996103;28;20404;-77